sensor_id;sensor_type;location;lat;lon;timestamp;pressure;altitude;pressure_sealevel;temperature;humidity
8641;BME280;4358;42.100;25.222;2023-05-22T00:01:03;99713.75;;;16.56;100.00
8641;BME280;4358;42.100;25.222;2023-05-22T00:03:32;99694.91;;;16.48;100.00
8641;BME280;4358;42.100;25.222;2023-05-22T00:06:00;99709.69;;;16.62;100.00
8641;BME280;4358;42.100;25.222;2023-05-22T00:08:27;99709.25;;;16.66;100.00
8641;BME280;4358;42.100;25.222;2023-05-22T00:10:54;99708.13;;;16.59;100.00
8641;BME280;4358;42.100;25.222;2023-05-22T00:13:21;99698.53;;;16.57;100.00
8641;BME280;4358;42.100;25.222;2023-05-22T00:15:48;99688.53;;;16.49;100.00
8641;BME280;4358;42.100;25.222;2023-05-22T00:18:15;99693.47;;;16.44;100.00
8641;BME280;4358;42.100;25.222;2023-05-22T00:20:43;99694.22;;;16.36;100.00
8641;BME280;4358;42.100;25.222;2023-05-22T00:23:11;99699.72;;;16.35;100.00
8641;BME280;4358;42.100;25.222;2023-05-22T00:25:39;99699.84;;;16.33;100.00
8641;BME280;4358;42.100;25.222;2023-05-22T00:28:05;99701.38;;;16.45;100.00
8641;BME280;4358;42.100;25.222;2023-05-22T00:30:32;99696.88;;;16.46;100.00
8641;BME280;4358;42.100;25.222;2023-05-22T00:32:59;99702.31;;;16.54;100.00
8641;BME280;4358;42.100;25.222;2023-05-22T00:35:26;99705.00;;;16.54;100.00
8641;BME280;4358;42.100;25.222;2023-05-22T00:37:54;99701.66;;;16.52;100.00
8641;BME280;4358;42.100;25.222;2023-05-22T00:40:21;99672.03;;;16.44;100.00
8641;BME280;4358;42.100;25.222;2023-05-22T00:42:48;99705.72;;;16.66;100.00
8641;BME280;4358;42.100;25.222;2023-05-22T00:45:16;99703.88;;;16.57;100.00
8641;BME280;4358;42.100;25.222;2023-05-22T00:47:42;99698.00;;;16.34;100.00
8641;BME280;4358;42.100;25.222;2023-05-22T00:50:10;99694.91;;;16.29;100.00
8641;BME280;4358;42.100;25.222;2023-05-22T00:52:40;99705.38;;;16.32;100.00
8641;BME280;4358;42.100;25.222;2023-05-22T00:55:09;99708.19;;;16.30;100.00
8641;BME280;4358;42.100;25.222;2023-05-22T00:57:37;99711.41;;;16.34;100.00
8641;BME280;4358;42.100;25.222;2023-05-22T01:00:07;99704.09;;;16.36;100.00
8641;BME280;4358;42.100;25.222;2023-05-22T01:02:36;99703.38;;;16.34;100.00
8641;BME280;4358;42.100;25.222;2023-05-22T01:05:04;99697.47;;;16.30;100.00
8641;BME280;4358;42.100;25.222;2023-05-22T01:07:32;99700.00;;;16.32;100.00
8641;BME280;4358;42.100;25.222;2023-05-22T01:10:02;99693.06;;;16.39;100.00
8641;BME280;4358;42.100;25.222;2023-05-22T01:12:35;99698.97;;;16.52;100.00
8641;BME280;4358;42.100;25.222;2023-05-22T01:15:11;99698.97;;;16.52;100.00
8641;BME280;4358;42.100;25.222;2023-05-22T01:17:46;99699.94;;;16.51;100.00
8641;BME280;4358;42.100;25.222;2023-05-22T01:20:22;99701.06;;;16.58;100.00
8641;BME280;4358;42.100;25.222;2023-05-22T01:26:02;99697.84;;;16.64;100.00
8641;BME280;4358;42.100;25.222;2023-05-22T01:29:02;99691.59;;;16.54;100.00
8641;BME280;4358;42.100;25.222;2023-05-22T01:31:38;99693.16;;;16.66;100.00
8641;BME280;4358;42.100;25.222;2023-05-22T01:34:09;99694.56;;;16.70;100.00
8641;BME280;4358;42.100;25.222;2023-05-22T01:36:37;99658.56;;;16.36;100.00
8641;BME280;4358;42.100;25.222;2023-05-22T01:39:04;99678.00;;;16.28;100.00
8641;BME280;4358;42.100;25.222;2023-05-22T01:41:32;99683.97;;;16.22;100.00
8641;BME280;4358;42.100;25.222;2023-05-22T01:44:00;99685.78;;;16.22;100.00
8641;BME280;4358;42.100;25.222;2023-05-22T01:46:27;99689.88;;;16.16;100.00
8641;BME280;4358;42.100;25.222;2023-05-22T01:48:56;99691.16;;;16.22;100.00
8641;BME280;4358;42.100;25.222;2023-05-22T01:51:41;99687.44;;;16.23;100.00
8641;BME280;4358;42.100;25.222;2023-05-22T01:54:13;99681.44;;;16.11;100.00
8641;BME280;4358;42.100;25.222;2023-05-22T01:56:47;99670.75;;;16.01;100.00
8641;BME280;4358;42.100;25.222;2023-05-22T01:59:22;99681.13;;;16.24;100.00
8641;BME280;4358;42.100;25.222;2023-05-22T02:01:52;99684.22;;;16.29;100.00
8641;BME280;4358;42.100;25.222;2023-05-22T02:04:22;99680.00;;;16.26;100.00
8641;BME280;4358;42.100;25.222;2023-05-22T02:06:51;99644.56;;;15.95;100.00
8641;BME280;4358;42.100;25.222;2023-05-22T02:09:20;99689.03;;;16.16;100.00
8641;BME280;4358;42.100;25.222;2023-05-22T02:11:50;99682.00;;;16.15;100.00
8641;BME280;4358;42.100;25.222;2023-05-22T02:14:17;99679.44;;;16.23;100.00
8641;BME280;4358;42.100;25.222;2023-05-22T02:16:44;99691.28;;;16.20;100.00
8641;BME280;4358;42.100;25.222;2023-05-22T02:19:12;99689.16;;;16.24;100.00
8641;BME280;4358;42.100;25.222;2023-05-22T02:21:41;99692.94;;;16.31;100.00
8641;BME280;4358;42.100;25.222;2023-05-22T02:24:08;99693.81;;;16.31;100.00
8641;BME280;4358;42.100;25.222;2023-05-22T02:26:35;99693.47;;;16.44;100.00
8641;BME280;4358;42.100;25.222;2023-05-22T02:29:02;99693.22;;;16.37;100.00
8641;BME280;4358;42.100;25.222;2023-05-22T02:31:29;99695.50;;;16.23;100.00
8641;BME280;4358;42.100;25.222;2023-05-22T02:33:56;99690.16;;;16.13;100.00
8641;BME280;4358;42.100;25.222;2023-05-22T02:36:22;99695.50;;;16.23;100.00
8641;BME280;4358;42.100;25.222;2023-05-22T02:38:51;99693.81;;;16.22;100.00
8641;BME280;4358;42.100;25.222;2023-05-22T02:41:19;99696.34;;;16.23;100.00
8641;BME280;4358;42.100;25.222;2023-05-22T02:43:46;99691.97;;;16.13;100.00
8641;BME280;4358;42.100;25.222;2023-05-22T02:46:13;99688.34;;;15.94;100.00
8641;BME280;4358;42.100;25.222;2023-05-22T02:48:40;99685.69;;;15.94;100.00
8641;BME280;4358;42.100;25.222;2023-05-22T02:51:07;99691.03;;;15.75;100.00
8641;BME280;4358;42.100;25.222;2023-05-22T02:53:34;99689.91;;;15.78;100.00
8641;BME280;4358;42.100;25.222;2023-05-22T02:56:06;99691.88;;;15.85;100.00
8641;BME280;4358;42.100;25.222;2023-05-22T02:58:33;99692.00;;;15.93;100.00
8641;BME280;4358;42.100;25.222;2023-05-22T03:01:00;99691.03;;;15.94;100.00
8641;BME280;4358;42.100;25.222;2023-05-22T03:03:27;99693.28;;;15.99;100.00
8641;BME280;4358;42.100;25.222;2023-05-22T03:05:55;99692.44;;;15.98;100.00
8641;BME280;4358;42.100;25.222;2023-05-22T03:08:23;99691.47;;;15.80;100.00
8641;BME280;4358;42.100;25.222;2023-05-22T03:10:50;99685.09;;;15.81;100.00
8641;BME280;4358;42.100;25.222;2023-05-22T03:13:18;99678.34;;;15.77;100.00
8641;BME280;4358;42.100;25.222;2023-05-22T03:15:45;99682.31;;;15.73;100.00
8641;BME280;4358;42.100;25.222;2023-05-22T03:18:12;99683.28;;;15.72;100.00
8641;BME280;4358;42.100;25.222;2023-05-22T03:20:39;99684.41;;;15.79;100.00
8641;BME280;4358;42.100;25.222;2023-05-22T03:23:06;99686.13;;;15.80;100.00
8641;BME280;4358;42.100;25.222;2023-05-22T03:25:33;99680.91;;;15.79;100.00
8641;BME280;4358;42.100;25.222;2023-05-22T03:28:00;99682.44;;;15.72;100.00
8641;BME280;4358;42.100;25.222;2023-05-22T03:30:28;99678.78;;;15.63;100.00
8641;BME280;4358;42.100;25.222;2023-05-22T03:32:54;99678.66;;;15.64;100.00
8641;BME280;4358;42.100;25.222;2023-05-22T03:35:21;99674.69;;;15.59;100.00
8641;BME280;4358;42.100;25.222;2023-05-22T03:37:49;99679.16;;;15.49;100.00
8641;BME280;4358;42.100;25.222;2023-05-22T03:40:16;99672.03;;;15.59;100.00
8641;BME280;4358;42.100;25.222;2023-05-22T03:42:43;99676.38;;;15.60;100.00
8641;BME280;4358;42.100;25.222;2023-05-22T03:45:10;99679.34;;;15.76;100.00
8641;BME280;4358;42.100;25.222;2023-05-22T03:47:38;99688.19;;;15.86;100.00
8641;BME280;4358;42.100;25.222;2023-05-22T03:50:06;99682.84;;;15.86;100.00
8641;BME280;4358;42.100;25.222;2023-05-22T03:52:33;99691.59;;;15.88;100.00
8641;BME280;4358;42.100;25.222;2023-05-22T03:54:59;99690.19;;;15.84;100.00
8641;BME280;4358;42.100;25.222;2023-05-22T03:57:26;99691.84;;;15.76;100.00
8641;BME280;4358;42.100;25.222;2023-05-22T03:59:53;99694.56;;;15.85;100.00
8641;BME280;4358;42.100;25.222;2023-05-22T04:02:20;99666.38;;;15.62;100.00
8641;BME280;4358;42.100;25.222;2023-05-22T04:04:51;99700.34;;;15.90;100.00
8641;BME280;4358;42.100;25.222;2023-05-22T04:07:18;99696.09;;;15.97;100.00
8641;BME280;4358;42.100;25.222;2023-05-22T04:09:45;99705.41;;;15.93;100.00
8641;BME280;4358;42.100;25.222;2023-05-22T04:12:12;99706.53;;;16.00;100.00
8641;BME280;4358;42.100;25.222;2023-05-22T04:14:39;99706.38;;;16.12;100.00
8641;BME280;4358;42.100;25.222;2023-05-22T04:17:06;99698.75;;;16.17;100.00
8641;BME280;4358;42.100;25.222;2023-05-22T04:19:32;99700.88;;;16.13;100.00
8641;BME280;4358;42.100;25.222;2023-05-22T04:22:01;99691.72;;;16.16;100.00
8641;BME280;4358;42.100;25.222;2023-05-22T04:24:28;99690.59;;;16.08;100.00
8641;BME280;4358;42.100;25.222;2023-05-22T04:26:54;99700.00;;;16.13;100.00
8641;BME280;4358;42.100;25.222;2023-05-22T04:29:27;99689.16;;;16.24;100.00
8641;BME280;4358;42.100;25.222;2023-05-22T04:31:54;99696.19;;;16.25;100.00
8641;BME280;4358;42.100;25.222;2023-05-22T04:34:21;99697.34;;;16.22;100.00
8641;BME280;4358;42.100;25.222;2023-05-22T04:36:48;99693.53;;;16.25;100.00
8641;BME280;4358;42.100;25.222;2023-05-22T04:39:16;99693.22;;;16.28;100.00
8641;BME280;4358;42.100;25.222;2023-05-22T04:41:43;99703.94;;;16.28;100.00
8641;BME280;4358;42.100;25.222;2023-05-22T04:44:10;99701.41;;;16.36;100.00
8641;BME280;4358;42.100;25.222;2023-05-22T04:46:38;99707.88;;;16.43;100.00
8641;BME280;4358;42.100;25.222;2023-05-22T04:49:05;99716.31;;;16.48;100.00
8641;BME280;4358;42.100;25.222;2023-05-22T04:51:32;99715.19;;;16.60;100.00
8641;BME280;4358;42.100;25.222;2023-05-22T04:53:59;99717.25;;;16.76;100.00
8641;BME280;4358;42.100;25.222;2023-05-22T04:56:27;99723.28;;;16.87;100.00
8641;BME280;4358;42.100;25.222;2023-05-22T04:58:54;99711.06;;;17.03;100.00
8641;BME280;4358;42.100;25.222;2023-05-22T05:01:21;99708.34;;;17.12;100.00
8641;BME280;4358;42.100;25.222;2023-05-22T05:03:49;99721.88;;;17.20;100.00
8641;BME280;4358;42.100;25.222;2023-05-22T05:06:16;99718.28;;;17.29;100.00
8641;BME280;4358;42.100;25.222;2023-05-22T05:08:46;99726.91;;;17.51;100.00
8641;BME280;4358;42.100;25.222;2023-05-22T05:11:14;99734.47;;;17.65;100.00
8641;BME280;4358;42.100;25.222;2023-05-22T05:13:42;99735.47;;;17.82;100.00
8641;BME280;4358;42.100;25.222;2023-05-22T05:16:09;99727.91;;;17.95;100.00
8641;BME280;4358;42.100;25.222;2023-05-22T05:18:36;99731.03;;;18.08;100.00
8641;BME280;4358;42.100;25.222;2023-05-22T05:21:03;99733.47;;;18.19;100.00
8641;BME280;4358;42.100;25.222;2023-05-22T05:23:30;99735.91;;;18.30;100.00
8641;BME280;4358;42.100;25.222;2023-05-22T05:25:57;99738.97;;;18.35;100.00
8641;BME280;4358;42.100;25.222;2023-05-22T05:28:24;99743.41;;;18.44;100.00
8641;BME280;4358;42.100;25.222;2023-05-22T05:30:52;99741.44;;;18.46;100.00
8641;BME280;4358;42.100;25.222;2023-05-22T05:33:19;99750.16;;;18.48;100.00
8641;BME280;4358;42.100;25.222;2023-05-22T05:35:46;99749.78;;;18.43;100.00
8641;BME280;4358;42.100;25.222;2023-05-22T05:38:15;99748.78;;;18.44;100.00
8641;BME280;4358;42.100;25.222;2023-05-22T05:40:43;99755.53;;;18.48;100.00
8641;BME280;4358;42.100;25.222;2023-05-22T05:43:09;99763.69;;;18.56;100.00
8641;BME280;4358;42.100;25.222;2023-05-22T05:45:38;99753.97;;;18.63;100.00
8641;BME280;4358;42.100;25.222;2023-05-22T05:48:06;99749.03;;;18.77;100.00
8641;BME280;4358;42.100;25.222;2023-05-22T05:50:33;99772.97;;;19.14;100.00
8641;BME280;4358;42.100;25.222;2023-05-22T05:53:00;99777.69;;;19.45;100.00
8641;BME280;4358;42.100;25.222;2023-05-22T05:55:27;99781.09;;;19.64;100.00
8641;BME280;4358;42.100;25.222;2023-05-22T05:57:54;99781.78;;;19.66;100.00
8641;BME280;4358;42.100;25.222;2023-05-22T06:00:21;99789.31;;;19.54;100.00
8641;BME280;4358;42.100;25.222;2023-05-22T06:02:47;99791.50;;;19.51;100.00
8641;BME280;4358;42.100;25.222;2023-05-22T06:05:16;99790.22;;;19.37;100.00
8641;BME280;4358;42.100;25.222;2023-05-22T06:07:43;99800.66;;;19.40;100.00
8641;BME280;4358;42.100;25.222;2023-05-22T06:10:11;99808.91;;;19.38;100.00
8641;BME280;4358;42.100;25.222;2023-05-22T06:12:38;99812.28;;;19.40;100.00
8641;BME280;4358;42.100;25.222;2023-05-22T06:15:06;99804.22;;;19.40;100.00
8641;BME280;4358;42.100;25.222;2023-05-22T06:17:33;99798.38;;;19.45;100.00
8641;BME280;4358;42.100;25.222;2023-05-22T06:20:01;99800.22;;;19.44;100.00
8641;BME280;4358;42.100;25.222;2023-05-22T06:22:31;99806.16;;;19.56;100.00
8641;BME280;4358;42.100;25.222;2023-05-22T06:24:58;99808.00;;;19.64;100.00
8641;BME280;4358;42.100;25.222;2023-05-22T06:27:25;99812.81;;;19.86;100.00
8641;BME280;4358;42.100;25.222;2023-05-22T06:29:53;99804.06;;;19.92;100.00
8641;BME280;4358;42.100;25.222;2023-05-22T06:32:19;99804.78;;;20.10;100.00
8641;BME280;4358;42.100;25.222;2023-05-22T06:34:47;99794.88;;;20.19;100.00
8641;BME280;4358;42.100;25.222;2023-05-22T06:37:14;99805.53;;;20.45;100.00
8641;BME280;4358;42.100;25.222;2023-05-22T06:39:42;99810.56;;;20.64;100.00
8641;BME280;4358;42.100;25.222;2023-05-22T06:42:09;99827.41;;;20.58;100.00
8641;BME280;4358;42.100;25.222;2023-05-22T06:44:36;99828.09;;;20.68;100.00
8641;BME280;4358;42.100;25.222;2023-05-22T06:47:03;99827.75;;;20.87;100.00
8641;BME280;4358;42.100;25.222;2023-05-22T06:49:30;99829.41;;;21.12;100.00
8641;BME280;4358;42.100;25.222;2023-05-22T06:51:57;99832.06;;;21.37;100.00
8641;BME280;4358;42.100;25.222;2023-05-22T06:54:24;99838.41;;;21.52;100.00
8641;BME280;4358;42.100;25.222;2023-05-22T06:56:54;99838.19;;;21.70;100.00
8641;BME280;4358;42.100;25.222;2023-05-22T06:59:21;99828.47;;;21.91;100.00
8641;BME280;4358;42.100;25.222;2023-05-22T07:01:48;99831.22;;;22.14;100.00
8641;BME280;4358;42.100;25.222;2023-05-22T07:04:15;99816.56;;;22.09;100.00
8641;BME280;4358;42.100;25.222;2023-05-22T07:06:42;99811.66;;;22.35;100.00
8641;BME280;4358;42.100;25.222;2023-05-22T07:09:10;99824.75;;;22.46;99.64
8641;BME280;4358;42.100;25.222;2023-05-22T07:11:38;99819.47;;;22.75;98.63
8641;BME280;4358;42.100;25.222;2023-05-22T07:14:08;99818.56;;;22.98;97.66
8641;BME280;4358;42.100;25.222;2023-05-22T07:16:36;99810.56;;;23.19;93.70
8641;BME280;4358;42.100;25.222;2023-05-22T07:19:03;99803.88;;;23.44;92.05
8641;BME280;4358;42.100;25.222;2023-05-22T07:21:31;99807.91;;;23.63;93.16
8641;BME280;4358;42.100;25.222;2023-05-22T07:23:59;99803.13;;;23.80;93.30
8641;BME280;4358;42.100;25.222;2023-05-22T07:26:33;99804.00;;;23.87;91.84
8641;BME280;4358;42.100;25.222;2023-05-22T07:28:59;99798.84;;;24.06;90.37
8641;BME280;4358;42.100;25.222;2023-05-22T07:31:28;99798.44;;;24.10;90.58
8641;BME280;4358;42.100;25.222;2023-05-22T07:33:55;99797.53;;;24.17;89.28
8641;BME280;4358;42.100;25.222;2023-05-22T07:36:22;99793.66;;;24.26;90.99
8641;BME280;4358;42.100;25.222;2023-05-22T07:38:48;99804.41;;;24.20;89.83
8641;BME280;4358;42.100;25.222;2023-05-22T07:41:16;99797.53;;;24.02;90.69
8641;BME280;4358;42.100;25.222;2023-05-22T07:43:43;99798.25;;;24.11;90.87
8641;BME280;4358;42.100;25.222;2023-05-22T07:46:10;99794.84;;;24.24;89.08
8641;BME280;4358;42.100;25.222;2023-05-22T07:48:38;99802.41;;;24.49;89.29
8641;BME280;4358;42.100;25.222;2023-05-22T07:51:05;99792.66;;;24.55;89.53
8641;BME280;4358;42.100;25.222;2023-05-22T07:53:32;99792.34;;;24.65;90.26
8641;BME280;4358;42.100;25.222;2023-05-22T07:55:59;99796.19;;;24.77;90.39
8641;BME280;4358;42.100;25.222;2023-05-22T07:58:26;99793.41;;;24.92;88.46
8641;BME280;4358;42.100;25.222;2023-05-22T08:00:52;99801.91;;;25.10;88.68
8641;BME280;4358;42.100;25.222;2023-05-22T08:03:20;99796.88;;;25.07;87.73
8641;BME280;4358;42.100;25.222;2023-05-22T08:05:48;99792.59;;;25.25;86.93
8641;BME280;4358;42.100;25.222;2023-05-22T08:08:15;99795.56;;;25.30;86.30
8641;BME280;4358;42.100;25.222;2023-05-22T08:10:42;99799.44;;;25.15;87.17
8641;BME280;4358;42.100;25.222;2023-05-22T08:13:08;99794.72;;;24.96;87.37
8641;BME280;4358;42.100;25.222;2023-05-22T08:15:36;99798.22;;;25.17;87.18
8641;BME280;4358;42.100;25.222;2023-05-22T08:18:03;99793.06;;;25.36;87.76
8641;BME280;4358;42.100;25.222;2023-05-22T08:20:30;99783.28;;;25.41;88.39
8641;BME280;4358;42.100;25.222;2023-05-22T08:22:58;99795.78;;;25.36;88.24
8641;BME280;4358;42.100;25.222;2023-05-22T08:25:25;99795.78;;;25.36;87.21
8641;BME280;4358;42.100;25.222;2023-05-22T08:27:52;99795.28;;;25.53;87.13
8641;BME280;4358;42.100;25.222;2023-05-22T08:30:19;99797.31;;;25.79;84.91
8641;BME280;4358;42.100;25.222;2023-05-22T08:32:45;99792.34;;;25.96;84.53
8641;BME280;4358;42.100;25.222;2023-05-22T08:35:12;99799.00;;;25.93;84.27
8641;BME280;4358;42.100;25.222;2023-05-22T08:37:39;99802.75;;;25.79;85.13
8641;BME280;4358;42.100;25.222;2023-05-22T08:40:09;99798.75;;;25.82;85.59
8641;BME280;4358;42.100;25.222;2023-05-22T08:42:36;99805.03;;;25.82;84.33
8641;BME280;4358;42.100;25.222;2023-05-22T08:45:04;99800.63;;;25.75;84.06
8641;BME280;4358;42.100;25.222;2023-05-22T08:47:35;99799.41;;;25.84;84.47
8641;BME280;4358;42.100;25.222;2023-05-22T08:50:03;99800.03;;;25.79;85.29
8641;BME280;4358;42.100;25.222;2023-05-22T08:52:34;99790.38;;;25.77;85.57
8641;BME280;4358;42.100;25.222;2023-05-22T08:55:03;99789.31;;;25.71;86.55
8641;BME280;4358;42.100;25.222;2023-05-22T08:57:33;99783.09;;;25.84;85.34
8641;BME280;4358;42.100;25.222;2023-05-22T09:00:00;99776.63;;;25.91;85.93
8641;BME280;4358;42.100;25.222;2023-05-22T09:02:30;99776.84;;;25.96;84.46
8641;BME280;4358;42.100;25.222;2023-05-22T09:04:57;99771.03;;;26.06;83.10
8641;BME280;4358;42.100;25.222;2023-05-22T09:07:26;99780.31;;;26.31;82.49
8641;BME280;4358;42.100;25.222;2023-05-22T09:09:55;99775.94;;;26.37;80.76
8641;BME280;4358;42.100;25.222;2023-05-22T09:12:21;99771.13;;;26.72;79.98
8641;BME280;4358;42.100;25.222;2023-05-22T09:14:52;99762.72;;;26.80;80.35
8641;BME280;4358;42.100;25.222;2023-05-22T09:17:20;99774.91;;;26.84;80.32
8641;BME280;4358;42.100;25.222;2023-05-22T09:19:47;99767.97;;;26.81;80.28
8641;BME280;4358;42.100;25.222;2023-05-22T09:22:13;99764.00;;;26.64;80.55
8641;BME280;4358;42.100;25.222;2023-05-22T09:24:41;99770.22;;;26.19;81.14
8641;BME280;4358;42.100;25.222;2023-05-22T09:27:09;99770.00;;;26.13;81.66
8641;BME280;4358;42.100;25.222;2023-05-22T09:29:46;99772.00;;;25.79;81.56
8641;BME280;4358;42.100;25.222;2023-05-22T09:32:15;99770.50;;;25.76;82.71
8641;BME280;4358;42.100;25.222;2023-05-22T09:34:43;99764.25;;;25.82;83.19
8641;BME280;4358;42.100;25.222;2023-05-22T09:37:11;99767.16;;;25.74;82.54
8641;BME280;4358;42.100;25.222;2023-05-22T09:39:39;99762.09;;;25.58;81.53
8641;BME280;4358;42.100;25.222;2023-05-22T09:42:07;99767.97;;;25.68;81.59
8641;BME280;4358;42.100;25.222;2023-05-22T09:44:39;99769.75;;;25.54;84.25
8641;BME280;4358;42.100;25.222;2023-05-22T09:47:07;99768.81;;;25.75;83.25
8641;BME280;4358;42.100;25.222;2023-05-22T09:49:40;99749.75;;;25.62;83.99
8641;BME280;4358;42.100;25.222;2023-05-22T09:52:08;99759.06;;;25.94;82.01
8641;BME280;4358;42.100;25.222;2023-05-22T09:54:44;99755.94;;;25.97;82.38
8641;BME280;4358;42.100;25.222;2023-05-22T09:57:16;99755.09;;;25.96;82.81
8641;BME280;4358;42.100;25.222;2023-05-22T09:59:46;99752.41;;;26.03;82.66
8641;BME280;4358;42.100;25.222;2023-05-22T10:02:19;99753.06;;;26.11;80.71
8641;BME280;4358;42.100;25.222;2023-05-22T10:04:49;99750.91;;;25.94;80.93
8641;BME280;4358;42.100;25.222;2023-05-22T10:07:18;99747.56;;;25.98;80.80
8641;BME280;4358;42.100;25.222;2023-05-22T10:09:51;99748.00;;;26.08;81.88
8641;BME280;4358;42.100;25.222;2023-05-22T10:12:20;99754.28;;;26.02;80.10
8641;BME280;4358;42.100;25.222;2023-05-22T10:14:49;99746.94;;;25.96;79.47
8641;BME280;4358;42.100;25.222;2023-05-22T10:17:16;99731.69;;;26.02;78.07
8641;BME280;4358;42.100;25.222;2023-05-22T10:19:43;99744.31;;;26.29;78.00
8641;BME280;4358;42.100;25.222;2023-05-22T10:22:13;99735.97;;;26.64;76.63
8641;BME280;4358;42.100;25.222;2023-05-22T10:24:45;99735.50;;;26.86;76.79
8641;BME280;4358;42.100;25.222;2023-05-22T10:27:13;99740.94;;;27.06;75.57
8641;BME280;4358;42.100;25.222;2023-05-22T10:29:45;99723.91;;;27.24;72.09
8641;BME280;4358;42.100;25.222;2023-05-22T10:32:22;99732.53;;;27.21;71.76
8641;BME280;4358;42.100;25.222;2023-05-22T10:35:00;99733.44;;;26.95;71.09
8641;BME280;4358;42.100;25.222;2023-05-22T10:37:47;99729.19;;;27.19;71.79
8641;BME280;4358;42.100;25.222;2023-05-22T10:40:19;99725.34;;;27.39;71.52
8641;BME280;4358;42.100;25.222;2023-05-22T10:42:56;99728.72;;;27.79;68.70
8641;BME280;4358;42.100;25.222;2023-05-22T10:45:25;99731.41;;;27.93;67.89
8641;BME280;4358;42.100;25.222;2023-05-22T10:48:01;99722.91;;;28.14;62.48
8641;BME280;4358;42.100;25.222;2023-05-22T10:50:29;99711.88;;;28.27;62.14
8641;BME280;4358;42.100;25.222;2023-05-22T10:53:18;99712.78;;;28.21;60.91
8641;BME280;4358;42.100;25.222;2023-05-22T10:55:46;99706.00;;;28.30;62.30
8641;BME280;4358;42.100;25.222;2023-05-22T10:58:14;99698.47;;;28.50;61.36
8641;BME280;4358;42.100;25.222;2023-05-22T11:00:41;99687.72;;;28.55;59.45
8641;BME280;4358;42.100;25.222;2023-05-22T11:03:08;99688.69;;;28.86;58.27
8641;BME280;4358;42.100;25.222;2023-05-22T11:05:36;99677.56;;;28.87;57.64
8641;BME280;4358;42.100;25.222;2023-05-22T11:08:36;99685.22;;;28.97;55.67
8641;BME280;4358;42.100;25.222;2023-05-22T11:11:13;99662.28;;;29.16;55.09
8641;BME280;4358;42.100;25.222;2023-05-22T11:13:40;99676.56;;;28.82;54.88
8641;BME280;4358;42.100;25.222;2023-05-22T11:16:08;99671.84;;;28.46;56.03
8641;BME280;4358;42.100;25.222;2023-05-22T11:18:36;99672.03;;;28.26;56.28
8641;BME280;4358;42.100;25.222;2023-05-22T11:21:03;99665.94;;;28.49;55.75
8641;BME280;4358;42.100;25.222;2023-05-22T11:23:33;99669.13;;;28.21;56.20
8641;BME280;4358;42.100;25.222;2023-05-22T11:26:20;99677.13;;;28.16;56.66
8641;BME280;4358;42.100;25.222;2023-05-22T11:28:50;99663.59;;;28.28;55.84
8641;BME280;4358;42.100;25.222;2023-05-22T11:31:18;99664.91;;;28.25;56.45
8641;BME280;4358;42.100;25.222;2023-05-22T11:33:47;99662.75;;;28.27;55.70
8641;BME280;4358;42.100;25.222;2023-05-22T11:36:14;99668.81;;;28.54;55.45
8641;BME280;4358;42.100;25.222;2023-05-22T11:38:41;99668.25;;;28.70;56.07
8641;BME280;4358;42.100;25.222;2023-05-22T11:41:09;99669.72;;;28.91;55.31
8641;BME280;4358;42.100;25.222;2023-05-22T11:43:41;99679.00;;;29.08;54.36
8641;BME280;4358;42.100;25.222;2023-05-22T11:46:09;99665.63;;;29.18;54.54
8641;BME280;4358;42.100;25.222;2023-05-22T11:48:39;99658.78;;;29.27;54.92
8641;BME280;4358;42.100;25.222;2023-05-22T11:51:07;99669.00;;;29.38;54.12
8641;BME280;4358;42.100;25.222;2023-05-22T11:53:34;99658.81;;;29.45;52.86
8641;BME280;4358;42.100;25.222;2023-05-22T11:56:02;99656.38;;;29.19;53.28
8641;BME280;4358;42.100;25.222;2023-05-22T11:58:30;99663.00;;;28.93;56.81
8641;BME280;4358;42.100;25.222;2023-05-22T12:01:00;99654.56;;;29.13;54.51
8641;BME280;4358;42.100;25.222;2023-05-22T12:03:27;99650.47;;;28.86;56.61
8641;BME280;4358;42.100;25.222;2023-05-22T12:05:55;99655.44;;;28.71;56.58
8641;BME280;4358;42.100;25.222;2023-05-22T12:08:23;99647.19;;;28.95;55.86
8641;BME280;4358;42.100;25.222;2023-05-22T12:10:52;99642.63;;;29.26;55.02
8641;BME280;4358;42.100;25.222;2023-05-22T12:13:26;99643.47;;;29.44;53.91
8641;BME280;4358;42.100;25.222;2023-05-22T12:15:55;99643.56;;;29.20;55.16
8641;BME280;4358;42.100;25.222;2023-05-22T12:18:24;99642.34;;;28.54;55.73
8641;BME280;4358;42.100;25.222;2023-05-22T12:20:51;99641.72;;;28.34;55.99
8641;BME280;4358;42.100;25.222;2023-05-22T12:23:23;99640.50;;;27.74;57.69
8641;BME280;4358;42.100;25.222;2023-05-22T12:25:57;99642.25;;;27.62;58.44
8641;BME280;4358;42.100;25.222;2023-05-22T12:28:25;99632.47;;;27.41;60.09
8641;BME280;4358;42.100;25.222;2023-05-22T12:30:52;99625.91;;;27.11;61.11
8641;BME280;4358;42.100;25.222;2023-05-22T12:33:26;99633.28;;;27.04;61.00
8641;BME280;4358;42.100;25.222;2023-05-22T12:35:53;99630.00;;;26.69;62.01
8641;BME280;4358;42.100;25.222;2023-05-22T12:38:24;99630.59;;;26.71;63.16
8641;BME280;4358;42.100;25.222;2023-05-22T12:40:51;99634.63;;;26.55;65.33
8641;BME280;4358;42.100;25.222;2023-05-22T12:43:20;99636.50;;;25.82;73.11
8641;BME280;4358;42.100;25.222;2023-05-22T12:45:48;99635.75;;;25.41;74.45
8641;BME280;4358;42.100;25.222;2023-05-22T12:48:15;99648.59;;;25.12;77.67
8641;BME280;4358;42.100;25.222;2023-05-22T12:50:44;99650.03;;;24.74;78.89
8641;BME280;4358;42.100;25.222;2023-05-22T12:53:11;99632.22;;;24.30;83.63
8641;BME280;4358;42.100;25.222;2023-05-22T12:55:39;99648.41;;;24.17;84.12
8641;BME280;4358;42.100;25.222;2023-05-22T12:58:06;99651.19;;;24.09;87.42
8641;BME280;4358;42.100;25.222;2023-05-22T13:00:33;99659.22;;;23.96;87.25
8641;BME280;4358;42.100;25.222;2023-05-22T13:03:00;99676.69;;;23.36;90.84
8641;BME280;4358;42.100;25.222;2023-05-22T13:05:28;99675.44;;;23.03;94.62
8641;BME280;4358;42.100;25.222;2023-05-22T13:07:57;99651.06;;;22.59;96.14
8641;BME280;4358;42.100;25.222;2023-05-22T13:10:24;99689.38;;;22.62;96.16
8641;BME280;4358;42.100;25.222;2023-05-22T13:12:51;99691.06;;;22.49;98.36
8641;BME280;4358;42.100;25.222;2023-05-22T13:15:17;99688.19;;;22.13;100.00